createdAt,value
2022-08-28T00:01:02.270Z,6.20
2022-08-28T00:03:38.010Z,8.13
2022-08-28T00:06:12.514Z,7.32
2022-08-28T00:08:46.801Z,6.28
2022-08-28T00:11:20.349Z,6.95
2022-08-28T00:13:53.493Z,8.50
2022-08-28T00:16:30.561Z,7.10
2022-08-28T00:19:05.905Z,8.68
2022-08-28T00:21:38.920Z,7.53
2022-08-28T00:27:02.692Z,7.73
2022-08-28T00:29:35.594Z,8.25
2022-08-28T00:32:08.860Z,4.57
2022-08-28T00:34:43.104Z,6.93
2022-08-28T00:37:15.895Z,5.40
2022-08-28T00:39:49.314Z,7.45
2022-08-28T00:42:22.725Z,7.10
2022-08-28T00:44:55.786Z,9.02
2022-08-28T00:50:05.147Z,4.82
2022-08-28T00:52:37.952Z,8.98
2022-08-28T00:55:15.441Z,4.57
2022-08-28T00:57:51.719Z,7.18
2022-08-28T01:00:29.313Z,5.03
2022-08-28T01:03:02.762Z,9.00
2022-08-28T01:05:39.601Z,6.97
2022-08-28T01:08:12.896Z,8.73
2022-08-28T01:10:51.335Z,5.15
2022-08-28T01:13:26.807Z,5.57
2022-08-28T01:16:01.121Z,6.68
2022-08-28T01:18:35.942Z,4.75
2022-08-28T01:21:20.530Z,8.52
2022-08-28T01:23:58.841Z,7.32
2022-08-28T01:26:32.486Z,5.10
2022-08-28T01:29:05.440Z,5.88
2022-08-28T01:34:13.603Z,5.97
2022-08-28T01:36:48.616Z,5.38
2022-08-28T01:39:26.727Z,5.15
2022-08-28T01:42:00.772Z,6.32
2022-08-28T01:44:33.579Z,9.13
2022-08-28T01:47:06.598Z,7.93
2022-08-28T01:49:39.711Z,7.75
2022-08-28T01:52:13.322Z,5.50
2022-08-28T01:54:47.409Z,5.30
2022-08-28T01:57:21.104Z,6.50
2022-08-28T01:59:55.929Z,5.22
2022-08-28T02:02:29.330Z,6.93
2022-08-28T02:05:02.037Z,5.15
2022-08-28T02:07:35.573Z,5.60
2022-08-28T02:10:11.992Z,4.38
2022-08-28T02:12:44.882Z,6.18
2022-08-28T02:15:17.872Z,7.47
2022-08-28T02:17:51.585Z,5.28
2022-08-28T02:20:25.608Z,5.05
2022-08-28T02:22:59.688Z,6.28
2022-08-28T02:25:34.177Z,3.90
2022-08-28T02:28:06.977Z,6.55
2022-08-28T02:33:13.156Z,4.40
2022-08-28T02:35:45.957Z,5.22
2022-08-28T02:38:18.961Z,4.30
2022-08-28T02:43:25.933Z,5.30
2022-08-28T02:45:58.720Z,5.72
2022-08-28T02:48:33.475Z,3.95
2022-08-28T02:51:09.472Z,5.13
2022-08-28T02:53:43.142Z,3.75
2022-08-28T02:56:17.633Z,5.57
2022-08-28T02:58:51.373Z,4.32
2022-08-28T03:01:26.787Z,3.88
2022-08-28T03:03:59.977Z,4.65
2022-08-28T03:06:33.212Z,3.45
2022-08-28T03:09:07.188Z,7.70
2022-08-28T03:11:41.813Z,3.85
2022-08-28T03:14:14.577Z,3.72
2022-08-28T03:16:47.460Z,4.47
2022-08-28T03:21:53.121Z,3.93
2022-08-28T03:24:26.012Z,3.38
2022-08-28T03:27:02.050Z,3.55
2022-08-28T03:29:34.918Z,4.15
2022-08-28T03:32:07.726Z,4.57
2022-08-28T03:34:41.074Z,2.92
2022-08-28T03:37:14.222Z,6.50
2022-08-28T03:42:21.008Z,8.97
2022-08-28T03:44:54.512Z,4.53
2022-08-28T03:47:28.300Z,4.80
2022-08-28T03:50:02.735Z,5.70
2022-08-28T03:52:36.148Z,3.80
2022-08-28T03:55:11.313Z,3.25
2022-08-28T03:57:45.832Z,3.70
2022-08-28T04:00:20.415Z,3.47
2022-08-28T04:02:53.506Z,2.30
2022-08-28T04:07:58.980Z,4.43
2022-08-28T04:10:33.318Z,3.95
2022-08-28T04:13:07.468Z,4.82
2022-08-28T04:15:41.331Z,5.85
2022-08-28T04:18:14.402Z,3.15
2022-08-28T04:20:48.189Z,4.30
2022-08-28T04:23:21.080Z,3.95
2022-08-28T04:25:54.119Z,4.68
2022-08-28T04:28:28.554Z,3.13
2022-08-28T04:31:01.971Z,4.05
2022-08-28T04:33:35.781Z,4.38
2022-08-28T04:36:12.197Z,5.25
2022-08-28T04:38:45.575Z,5.90
2022-08-28T04:41:21.339Z,4.82
2022-08-28T04:43:57.478Z,3.08
2022-08-28T04:46:31.121Z,3.25
2022-08-28T04:49:05.921Z,6.43
2022-08-28T04:51:42.025Z,4.15
2022-08-28T04:54:15.447Z,3.60
2022-08-28T04:59:22.180Z,4.93
2022-08-28T05:01:55.016Z,3.72
2022-08-28T05:04:28.506Z,2.92
2022-08-28T05:07:01.218Z,6.10
2022-08-28T05:09:36.215Z,4.88
2022-08-28T05:12:09.445Z,5.35
2022-08-28T05:14:43.604Z,5.40
2022-08-28T05:17:16.787Z,4.38
2022-08-28T05:19:49.513Z,4.22
2022-08-28T05:22:22.279Z,3.83
2022-08-28T05:24:54.965Z,3.63
2022-08-28T05:27:28.200Z,4.82
2022-08-28T05:30:02.417Z,4.35
2022-08-28T05:32:35.202Z,4.70
2022-08-28T05:35:08.597Z,6.88
2022-08-28T05:37:41.295Z,3.63
2022-08-28T05:40:16.798Z,4.35
2022-08-28T05:42:49.770Z,4.60
2022-08-28T05:45:24.318Z,5.70
2022-08-28T05:47:57.464Z,4.47
2022-08-28T05:50:30.457Z,4.63
2022-08-28T05:53:03.198Z,3.50
2022-08-28T05:55:35.938Z,6.25
2022-08-28T05:58:22.640Z,4.70
2022-08-28T06:00:58.324Z,6.68
2022-08-28T06:03:31.424Z,5.60
2022-08-28T06:08:37.438Z,3.72
2022-08-28T06:11:10.150Z,4.93
2022-08-28T06:13:43.180Z,4.32
2022-08-28T06:16:19.206Z,7.10
2022-08-28T06:18:51.967Z,10.90
2022-08-28T06:21:25.359Z,10.68
2022-08-28T06:23:58.137Z,9.70
2022-08-28T06:26:30.858Z,5.18
2022-08-28T06:29:06.044Z,5.22
2022-08-28T06:31:40.913Z,6.32
2022-08-28T06:34:14.093Z,3.88
2022-08-28T06:36:49.525Z,12.07
2022-08-28T06:39:26.256Z,7.75
2022-08-28T06:41:59.066Z,8.00
2022-08-28T06:44:32.414Z,8.23
2022-08-28T06:49:39.305Z,8.30
2022-08-28T06:52:12.087Z,9.68
2022-08-28T06:54:55.337Z,7.70
2022-08-28T06:57:35.248Z,8.18
2022-08-28T07:00:09.415Z,9.65
2022-08-28T07:02:43.681Z,4.82
2022-08-28T07:05:17.861Z,6.68
2022-08-28T07:07:50.906Z,6.65
2022-08-28T07:12:56.442Z,7.38
2022-08-28T07:15:29.519Z,9.55
2022-08-28T07:18:03.636Z,8.60
2022-08-28T07:20:36.540Z,7.88
2022-08-28T07:23:09.197Z,7.13
2022-08-28T07:25:42.488Z,12.25
2022-08-28T07:28:15.347Z,11.00
2022-08-28T07:31:00.820Z,16.27
2022-08-28T07:33:35.323Z,7.38
2022-08-28T07:36:09.413Z,7.25
2022-08-28T07:38:48.838Z,7.05
2022-08-28T07:41:25.842Z,8.70
2022-08-28T07:44:16.963Z,10.18
2022-08-28T07:46:49.735Z,4.30
2022-08-28T07:49:24.410Z,8.98
2022-08-28T07:51:57.202Z,5.47
2022-08-28T07:54:29.961Z,6.82
2022-08-28T07:57:03.176Z,7.95
2022-08-28T07:59:36.784Z,5.00
2022-08-28T08:02:10.891Z,10.18
2022-08-28T08:04:45.139Z,4.85
2022-08-28T08:07:18.032Z,10.73
2022-08-28T08:12:23.398Z,7.63
2022-08-28T08:14:56.168Z,5.45
2022-08-28T08:17:29.311Z,7.22
2022-08-28T08:20:04.049Z,7.85
2022-08-28T08:22:37.734Z,6.50
2022-08-28T08:25:11.172Z,11.02
2022-08-28T08:27:44.022Z,9.90
2022-08-28T08:30:17.026Z,6.47
2022-08-28T08:35:24.320Z,6.60
2022-08-28T08:38:00.662Z,4.75
2022-08-28T08:40:35.617Z,7.57
2022-08-28T08:43:10.041Z,3.78
2022-08-28T08:45:45.925Z,5.50
2022-08-28T08:48:28.555Z,5.32
2022-08-28T08:51:06.321Z,5.70
2022-08-28T08:53:48.229Z,7.53
2022-08-28T08:56:21.848Z,5.80
2022-08-28T08:58:56.467Z,9.35
2022-08-28T09:01:34.218Z,8.18
2022-08-28T09:04:18.507Z,8.40
2022-08-28T09:07:00.567Z,6.70
2022-08-28T09:09:37.611Z,6.65
2022-08-28T09:12:18.328Z,5.25
2022-08-28T09:14:57.683Z,8.85
2022-08-28T09:17:34.323Z,5.35
2022-08-28T09:20:09.924Z,3.58
2022-08-28T09:22:46.512Z,8.07
2022-08-28T09:25:53.029Z,5.05
2022-08-28T09:28:31.718Z,6.35
2022-08-28T09:31:07.543Z,6.05
2022-08-28T09:33:44.864Z,4.60
2022-08-28T09:36:31.579Z,5.28
2022-08-28T09:39:12.836Z,6.72
2022-08-28T09:42:17.129Z,5.00
2022-08-28T09:44:54.152Z,5.10
2022-08-28T09:47:46.846Z,4.88
2022-08-28T09:50:29.952Z,8.18
2022-08-28T09:53:19.331Z,6.60
2022-08-28T09:56:00.565Z,6.85
2022-08-28T09:58:37.394Z,5.10
2022-08-28T10:01:28.194Z,6.85
2022-08-28T10:04:12.579Z,8.35
2022-08-28T10:06:52.626Z,5.78
2022-08-28T10:09:32.548Z,10.57
2022-08-28T10:12:17.951Z,5.45
2022-08-28T10:14:57.456Z,5.95
2022-08-28T10:17:38.401Z,6.65
2022-08-28T10:20:17.663Z,8.10
2022-08-28T10:22:57.315Z,6.60
2022-08-28T10:25:41.199Z,3.90
2022-08-28T10:28:34.507Z,4.95
2022-08-28T10:31:16.285Z,5.38
2022-08-28T10:34:04.716Z,8.98
2022-08-28T10:36:37.776Z,5.07
2022-08-28T10:39:22.350Z,8.95
2022-08-28T10:41:59.856Z,6.15
2022-08-28T10:44:39.849Z,4.95
2022-08-28T10:47:14.413Z,5.30
2022-08-28T10:49:49.985Z,7.03
2022-08-28T10:52:29.257Z,6.63
2022-08-28T10:55:07.258Z,5.10
2022-08-28T10:57:45.278Z,5.05
2022-08-28T11:00:22.972Z,5.00
2022-08-28T11:02:58.806Z,8.68
2022-08-28T11:05:35.766Z,6.95
2022-08-28T11:08:12.893Z,4.60
2022-08-28T11:10:49.925Z,12.43
2022-08-28T11:13:48.150Z,5.40
2022-08-28T11:16:25.649Z,4.85
2022-08-28T11:19:43.981Z,7.22
2022-08-28T11:22:22.346Z,12.30
2022-08-28T11:25:09.415Z,5.32
2022-08-28T11:28:14.438Z,8.40
2022-08-28T11:30:50.354Z,8.38
2022-08-28T11:33:39.746Z,4.47
2022-08-28T11:36:33.228Z,5.78
2022-08-28T11:39:20.377Z,6.22
2022-08-28T11:42:32.022Z,6.78
2022-08-28T11:45:05.536Z,4.63
2022-08-28T11:47:58.911Z,7.93
2022-08-28T11:53:34.902Z,4.43
2022-08-28T11:56:34.186Z,3.92
2022-08-28T11:59:35.037Z,5.82
2022-08-28T12:02:51.810Z,5.20
2022-08-28T12:05:47.600Z,4.35
2022-08-28T12:09:09.549Z,4.60
2022-08-28T12:11:57.911Z,7.97
2022-08-28T12:15:33.420Z,7.47
2022-08-28T12:18:14.536Z,9.05
2022-08-28T12:21:05.305Z,4.35
2022-08-28T12:23:44.955Z,7.30
2022-08-28T12:26:26.004Z,10.02
2022-08-28T12:29:02.341Z,6.93
2022-08-28T12:32:20.561Z,4.57
2022-08-28T12:35:16.674Z,4.63
2022-08-28T12:38:02.987Z,7.25
2022-08-28T12:40:50.498Z,5.90
2022-08-28T12:43:30.944Z,4.82
2022-08-28T12:46:07.035Z,5.85
2022-08-28T12:48:53.188Z,4.75
2022-08-28T12:51:27.888Z,3.97
2022-08-28T12:54:04.390Z,5.85
2022-08-28T12:56:38.998Z,3.92
2022-08-28T12:59:27.487Z,5.15
2022-08-28T13:02:03.251Z,4.47
2022-08-28T13:04:38.759Z,3.75
2022-08-28T13:07:16.012Z,6.30
2022-08-28T13:09:53.033Z,6.95
2022-08-28T13:12:51.705Z,4.97
2022-08-28T13:15:43.010Z,5.25
2022-08-28T13:18:39.874Z,5.10
2022-08-28T13:21:34.880Z,4.82
2022-08-28T13:24:45.674Z,7.07
2022-08-28T13:27:25.643Z,4.68
2022-08-28T13:30:08.299Z,3.40
2022-08-28T13:32:41.849Z,2.75
2022-08-28T13:35:34.214Z,4.03
2022-08-28T13:38:10.628Z,9.07
2022-08-28T13:41:03.937Z,5.25
2022-08-28T13:43:46.495Z,3.75
2022-08-28T13:46:20.088Z,4.35
2022-08-28T13:48:52.887Z,3.88
2022-08-28T13:54:00.663Z,4.05
2022-08-28T13:56:33.998Z,6.72
2022-08-28T13:59:08.128Z,5.72
2022-08-28T14:01:58.655Z,3.47
2022-08-28T14:04:31.550Z,5.35
2022-08-28T14:09:37.627Z,3.55
2022-08-28T14:12:11.075Z,4.50
2022-08-28T14:14:45.137Z,6.72
2022-08-28T14:17:18.797Z,4.32
2022-08-28T14:19:51.740Z,7.35
2022-08-28T14:22:24.514Z,5.00
2022-08-28T14:27:29.930Z,5.85
2022-08-28T14:32:37.922Z,4.47
2022-08-28T14:35:11.383Z,4.40
2022-08-28T14:37:44.061Z,6.85
2022-08-28T14:42:51.690Z,5.57
2022-08-28T14:45:25.717Z,4.85
2022-08-28T14:47:58.620Z,4.70
2022-08-28T14:53:05.518Z,6.18
2022-08-28T14:55:43.186Z,4.68
2022-08-28T14:58:17.819Z,5.00
2022-08-28T15:00:52.876Z,2.92
2022-08-28T15:03:25.735Z,5.13
2022-08-28T15:08:35.247Z,4.30
2022-08-28T15:11:09.291Z,3.83
2022-08-28T15:13:42.509Z,7.78
2022-08-28T15:16:18.803Z,4.45
2022-08-28T15:18:52.166Z,4.82
2022-08-28T15:21:27.245Z,3.70
2022-08-28T15:24:02.477Z,6.38
2022-08-28T15:26:36.614Z,7.47
2022-08-28T15:29:11.880Z,9.45
2022-08-28T15:31:48.011Z,9.00
2022-08-28T15:34:23.346Z,6.22
2022-08-28T15:36:57.221Z,4.80
2022-08-28T15:39:47.730Z,9.88
2022-08-28T15:42:20.477Z,21.40
2022-08-28T15:47:27.605Z,49.50
2022-08-28T15:50:00.466Z,55.53
2022-08-28T15:52:33.294Z,73.85
2022-08-28T15:55:07.302Z,24.42
2022-08-28T15:57:40.190Z,13.80
2022-08-28T16:02:47.973Z,6.72
2022-08-28T16:05:20.879Z,3.53
2022-08-28T16:10:26.690Z,5.70
2022-08-28T16:13:00.482Z,6.55
2022-08-28T16:15:33.654Z,3.95
2022-08-28T16:18:09.262Z,3.13
2022-08-28T16:20:44.077Z,3.63
2022-08-28T16:23:16.929Z,3.05
2022-08-28T16:28:22.528Z,5.70
2022-08-28T16:30:55.360Z,4.30
2022-08-28T16:33:30.375Z,4.15
2022-08-28T16:36:07.708Z,2.25
2022-08-28T16:38:41.942Z,3.85
2022-08-28T16:41:17.245Z,4.72
2022-08-28T16:43:50.863Z,5.00
2022-08-28T16:46:26.194Z,4.15
2022-08-28T16:49:00.622Z,4.22
2022-08-28T16:51:33.312Z,6.13
2022-08-28T16:54:06.908Z,3.30
2022-08-28T16:56:40.018Z,3.08
2022-08-28T16:59:13.209Z,5.00
2022-08-28T17:01:46.049Z,4.75
2022-08-28T17:04:27.246Z,3.83
2022-08-28T17:07:00.594Z,5.32
2022-08-28T17:12:06.837Z,3.43
2022-08-28T17:14:39.789Z,6.07
2022-08-28T17:17:12.872Z,4.15
2022-08-28T17:22:33.922Z,3.60
2022-08-28T17:25:13.592Z,4.38
2022-08-28T17:27:46.487Z,4.10
2022-08-28T17:30:20.620Z,4.38
2022-08-28T17:32:55.198Z,2.35
2022-08-28T17:35:29.341Z,5.15
2022-08-28T17:38:02.784Z,3.08
2022-08-28T17:40:35.851Z,3.45
2022-08-28T17:43:09.631Z,4.53
2022-08-28T17:45:42.434Z,3.10
2022-08-28T17:50:51.227Z,4.97
2022-08-28T17:53:27.700Z,3.83
2022-08-28T17:56:35.697Z,4.90
2022-08-28T17:59:09.473Z,3.40
2022-08-28T18:01:49.751Z,3.75
2022-08-28T18:04:24.610Z,2.05
2022-08-28T18:06:58.854Z,5.43
2022-08-28T18:09:31.667Z,3.22
2022-08-28T18:12:06.324Z,2.67
2022-08-28T18:14:45.188Z,2.25
2022-08-28T18:19:51.616Z,4.07
2022-08-28T18:22:29.642Z,4.75
2022-08-28T18:25:05.408Z,3.42
2022-08-28T18:27:38.207Z,2.83
2022-08-28T18:30:12.316Z,4.45
2022-08-28T18:32:45.236Z,4.68
2022-08-28T18:38:06.578Z,5.90
2022-08-28T18:40:40.082Z,4.20
2022-08-28T18:43:13.856Z,3.47
2022-08-28T18:45:46.889Z,2.88
2022-08-28T18:48:20.259Z,5.45
2022-08-28T18:50:53.060Z,4.07
2022-08-28T18:53:28.752Z,4.88
2022-08-28T18:56:02.037Z,2.40
2022-08-28T18:58:37.283Z,5.00
2022-08-28T19:01:10.814Z,4.28
2022-08-28T19:03:43.536Z,2.72
2022-08-28T19:06:16.808Z,2.33
2022-08-28T19:08:50.946Z,4.75
2022-08-28T19:11:23.730Z,4.93
2022-08-28T19:13:56.462Z,7.68
2022-08-28T19:16:29.216Z,2.70
2022-08-28T19:19:02.642Z,3.30
2022-08-28T19:21:35.799Z,4.53
2022-08-28T19:26:42.540Z,2.67
2022-08-28T19:29:15.410Z,4.30
2022-08-28T19:34:21.804Z,4.07
2022-08-28T19:36:54.542Z,2.90
2022-08-28T19:39:28.929Z,7.90
2022-08-28T19:42:02.635Z,3.33
2022-08-28T19:44:39.404Z,3.05
2022-08-28T19:47:12.650Z,2.58
2022-08-28T19:52:19.108Z,4.78
2022-08-28T19:54:53.224Z,4.10
2022-08-28T19:57:28.507Z,5.05
2022-08-28T20:00:01.914Z,3.85
2022-08-28T20:02:37.660Z,5.28
2022-08-28T20:05:11.546Z,6.68
2022-08-28T20:07:44.584Z,5.47
2022-08-28T20:12:52.099Z,5.35
2022-08-28T20:15:25.109Z,5.07
2022-08-28T20:17:57.887Z,5.18
2022-08-28T20:20:30.701Z,4.72
2022-08-28T20:25:46.428Z,6.55
2022-08-28T20:28:20.411Z,6.07
2022-08-28T20:30:53.200Z,5.70
2022-08-28T20:33:26.751Z,4.90
2022-08-28T20:36:03.057Z,3.22
2022-08-28T20:38:36.661Z,5.45
2022-08-28T20:41:13.161Z,7.97
2022-08-28T20:43:48.415Z,2.80
2022-08-28T20:46:21.914Z,5.40
2022-08-28T20:48:55.080Z,5.07
2022-08-28T20:54:14.544Z,4.03
2022-08-28T20:59:22.425Z,5.43
2022-08-28T21:01:55.908Z,3.78
2022-08-28T21:04:30.459Z,4.25
2022-08-28T21:07:03.336Z,2.92
2022-08-28T21:10:06.261Z,2.95
2022-08-28T21:12:30.471Z,3.17
2022-08-28T21:15:03.917Z,3.83
2022-08-28T21:17:36.897Z,2.35
2022-08-28T21:22:44.433Z,1.95
2022-08-28T21:25:18.581Z,2.63
2022-08-28T21:27:53.644Z,2.47
2022-08-28T21:30:29.677Z,2.28
2022-08-28T21:33:02.783Z,4.10
2022-08-28T21:35:35.839Z,4.30
2022-08-28T21:40:41.351Z,3.07
2022-08-28T21:45:58.794Z,4.97
2022-08-28T21:48:32.950Z,4.78
2022-08-28T21:51:07.823Z,2.83
2022-08-28T21:53:41.773Z,3.00
2022-08-28T21:56:17.670Z,2.95
2022-08-28T21:58:52.676Z,3.38
2022-08-28T22:01:26.737Z,3.55
2022-08-28T22:03:59.781Z,4.30
2022-08-28T22:09:05.723Z,4.15
2022-08-28T22:11:38.642Z,2.17
2022-08-28T22:16:46.852Z,3.70
2022-08-28T22:22:10.074Z,3.30
2022-08-28T22:24:42.903Z,4.38
2022-08-28T22:27:16.090Z,3.45
2022-08-28T22:29:50.266Z,4.97
2022-08-28T22:32:26.151Z,2.95
2022-08-28T22:34:59.042Z,5.47
2022-08-28T22:37:32.237Z,2.42
2022-08-28T22:40:09.371Z,4.15
2022-08-28T22:42:45.098Z,4.70
2022-08-28T22:47:54.377Z,2.05
2022-08-28T22:50:27.199Z,3.47
2022-08-28T22:53:00.041Z,4.30
2022-08-28T22:55:33.237Z,3.60
2022-08-28T22:58:06.353Z,2.20
2022-08-28T23:00:43.638Z,3.83
2022-08-28T23:03:16.904Z,2.65
2022-08-28T23:05:50.068Z,6.03
2022-08-28T23:10:59.433Z,5.75
2022-08-28T23:13:34.118Z,3.15
2022-08-28T23:16:09.483Z,2.50
2022-08-28T23:19:07.580Z,4.10
2022-08-28T23:21:35.502Z,2.80
2022-08-28T23:24:16.733Z,2.22
2022-08-28T23:26:49.936Z,1.98
2022-08-28T23:29:22.764Z,4.20
2022-08-28T23:31:57.098Z,4.65
2022-08-28T23:34:32.373Z,2.92
2022-08-28T23:37:05.351Z,4.63
2022-08-28T23:42:11.038Z,2.38
2022-08-28T23:44:43.989Z,7.65
2022-08-28T23:47:19.864Z,5.00
2022-08-28T23:49:53.072Z,2.45
2022-08-28T23:52:26.108Z,4.07
2022-08-28T23:57:33.104Z,4.10
